createdAt,value
2019-03-15T00:01:15.875Z,0
2019-03-15T00:02:15.655Z,0
2019-03-15T00:03:15.917Z,0
2019-03-15T00:04:30.605Z,0
2019-03-15T00:05:15.948Z,0
2019-03-15T00:06:15.959Z,0
2019-03-15T00:07:15.973Z,0
2019-03-15T00:08:15.992Z,0
2019-03-15T00:09:16.005Z,0
2019-03-15T00:10:16.423Z,0
2019-03-15T00:11:30.699Z,0
2019-03-15T00:12:30.712Z,0
2019-03-15T00:13:17.162Z,0
2019-03-15T00:14:30.741Z,0
2019-03-15T00:15:16.097Z,0
2019-03-15T00:16:30.775Z,0
2019-03-15T00:17:15.926Z,0
2019-03-15T00:18:15.924Z,0
2019-03-15T00:20:16.176Z,0
2019-03-15T00:21:16.191Z,0
2019-03-15T00:22:16.207Z,0
2019-03-15T00:23:16.237Z,0
2019-03-15T00:24:16.244Z,0
2019-03-15T00:25:16.397Z,0
2019-03-15T00:26:16.271Z,0
2019-03-15T00:27:16.289Z,0
2019-03-15T00:28:16.308Z,0
2019-03-15T00:30:32.023Z,0
2019-03-15T00:31:16.357Z,0
2019-03-15T00:32:31.024Z,0
2019-03-15T00:34:16.694Z,0
2019-03-15T00:35:16.910Z,0
2019-03-15T00:36:31.095Z,0
2019-03-15T00:37:16.442Z,0
2019-03-15T00:38:16.458Z,0
2019-03-15T00:39:16.466Z,0
2019-03-15T00:40:16.815Z,0
2019-03-15T00:41:16.509Z,0
2019-03-15T00:42:16.515Z,0
2019-03-15T00:43:16.530Z,0
2019-03-15T00:44:16.550Z,0
2019-03-15T00:45:16.562Z,0
2019-03-15T00:46:16.578Z,0
2019-03-15T00:47:17.384Z,0
2019-03-15T00:48:31.392Z,0
2019-03-15T00:49:16.623Z,0
2019-03-15T00:50:17.555Z,0
2019-03-15T00:51:16.658Z,0
2019-03-15T00:52:31.339Z,0
2019-03-15T00:53:16.689Z,0
2019-03-15T00:55:16.722Z,0
2019-03-15T00:56:16.735Z,0
2019-03-15T00:57:16.753Z,0
2019-03-15T00:58:16.765Z,0
2019-03-15T00:59:16.779Z,0
2019-03-15T01:00:16.795Z,0
2019-03-15T01:01:16.810Z,0
2019-03-15T01:02:16.829Z,0
2019-03-15T01:03:16.594Z,0
2019-03-15T01:04:16.923Z,0
2019-03-15T01:05:16.883Z,0
2019-03-15T01:06:16.974Z,0
2019-03-15T01:07:16.902Z,0
2019-03-15T01:08:31.588Z,0
2019-03-15T01:09:17.018Z,0
2019-03-15T01:10:17.050Z,0
2019-03-15T01:11:17.067Z,0
2019-03-15T01:12:31.747Z,0
2019-03-15T01:13:16.999Z,0
2019-03-15T01:15:17.031Z,0
2019-03-15T01:16:17.055Z,0
2019-03-15T01:17:17.063Z,0
2019-03-15T01:18:17.098Z,0
2019-03-15T01:19:17.800Z,0
2019-03-15T01:20:16.856Z,0
2019-03-15T01:22:17.137Z,0
2019-03-15T01:23:17.152Z,0
2019-03-15T01:24:31.831Z,0
2019-03-15T01:25:17.184Z,0
2019-03-15T01:26:17.221Z,0
2019-03-15T01:27:17.214Z,0
2019-03-15T01:28:17.231Z,0
2019-03-15T01:29:17.287Z,0
2019-03-15T01:30:17.276Z,0
2019-03-15T01:31:17.278Z,0
2019-03-15T01:32:17.298Z,0
2019-03-15T01:34:17.538Z,0
2019-03-15T01:35:17.344Z,0
2019-03-15T01:36:17.359Z,0
2019-03-15T01:38:17.395Z,0
2019-03-15T01:39:32.068Z,0
2019-03-15T01:40:17.420Z,0
2019-03-15T01:41:17.434Z,0
2019-03-15T01:42:17.448Z,0
2019-03-15T01:44:17.483Z,0
2019-03-15T01:45:32.164Z,0
2019-03-15T01:46:17.510Z,0
2019-03-15T01:47:17.530Z,0
2019-03-15T01:48:17.584Z,0
2019-03-15T01:49:17.571Z,0
2019-03-15T01:50:17.588Z,0
2019-03-15T01:53:17.622Z,0
2019-03-15T01:54:18.426Z,0
2019-03-15T01:55:17.657Z,0
2019-03-15T01:56:17.679Z,0
2019-03-15T01:57:17.686Z,0
2019-03-15T01:58:17.817Z,0
2019-03-15T01:59:17.716Z,0
2019-03-15T02:00:18.208Z,0
2019-03-15T02:01:17.754Z,0
2019-03-15T02:02:17.765Z,0
2019-03-15T02:03:18.533Z,0
2019-03-15T02:04:32.460Z,0
2019-03-15T02:05:17.836Z,0
2019-03-15T02:07:17.848Z,0
2019-03-15T02:08:17.870Z,0
2019-03-15T02:09:18.545Z,0
2019-03-15T02:10:18.223Z,0
2019-03-15T02:11:32.570Z,0
2019-03-15T02:12:17.943Z,0
2019-03-15T02:13:17.954Z,0
2019-03-15T02:14:17.957Z,0
2019-03-15T02:15:18.476Z,0
2019-03-15T02:16:32.650Z,0
2019-03-15T02:17:32.665Z,0
2019-03-15T02:18:32.690Z,0
2019-03-15T02:19:18.035Z,0
2019-03-15T02:21:18.439Z,0
2019-03-15T02:22:33.501Z,0
2019-03-15T02:23:18.097Z,0
2019-03-15T02:24:32.769Z,0
2019-03-15T02:25:32.860Z,0
2019-03-15T02:27:32.818Z,0
2019-03-15T02:28:18.176Z,0
2019-03-15T02:29:18.184Z,0
2019-03-15T02:30:18.318Z,0
2019-03-15T02:31:18.238Z,0
2019-03-15T02:32:18.277Z,0
2019-03-15T02:33:18.268Z,0
2019-03-15T02:35:18.480Z,0
2019-03-15T02:36:19.015Z,0
2019-03-15T02:37:33.727Z,0
2019-03-15T02:38:18.369Z,0
2019-03-15T02:39:19.135Z,0
2019-03-15T02:40:18.394Z,0
2019-03-15T02:41:18.385Z,0
2019-03-15T02:43:33.076Z,0
2019-03-15T02:44:34.118Z,0
2019-03-15T02:45:18.442Z,0
2019-03-15T02:46:18.470Z,0
2019-03-15T02:47:19.403Z,0
2019-03-15T02:48:33.158Z,0
2019-03-15T02:49:18.506Z,0
2019-03-15T02:50:18.529Z,0
2019-03-15T02:51:18.540Z,0
2019-03-15T02:53:18.589Z,0
2019-03-15T02:54:18.615Z,0
2019-03-15T02:55:33.271Z,0
2019-03-15T02:56:19.848Z,0
2019-03-15T02:57:33.321Z,0
2019-03-15T02:58:18.686Z,0
2019-03-15T02:59:33.319Z,0
2019-03-15T03:00:33.349Z,0
2019-03-15T03:01:18.700Z,0
2019-03-15T03:02:18.476Z,0
2019-03-15T03:03:18.723Z,0
2019-03-15T03:04:19.199Z,0
2019-03-15T03:05:34.269Z,0
2019-03-15T03:06:18.788Z,0
2019-03-15T03:07:33.454Z,0
2019-03-15T03:08:19.324Z,0
2019-03-15T03:09:34.107Z,0
2019-03-15T03:10:33.511Z,0
2019-03-15T03:11:33.523Z,0
2019-03-15T03:12:19.918Z,0
2019-03-15T03:13:19.159Z,0
2019-03-15T03:14:33.599Z,0
2019-03-15T03:15:18.988Z,0
2019-03-15T03:16:20.947Z,0
2019-03-15T03:17:20.341Z,0
2019-03-15T03:18:18.969Z,0
2019-03-15T03:19:18.984Z,0
2019-03-15T03:20:19.446Z,0
2019-03-15T03:21:20.065Z,0
2019-03-15T03:22:33.688Z,0
2019-03-15T03:23:33.702Z,0
2019-03-15T03:24:19.064Z,0
2019-03-15T03:25:19.981Z,0
2019-03-15T03:26:35.292Z,0
2019-03-15T03:27:19.631Z,0
2019-03-15T03:28:19.129Z,0
2019-03-15T03:29:19.934Z,0
2019-03-15T03:30:22.467Z,0
2019-03-15T03:31:20.849Z,0
2019-03-15T03:33:20.047Z,0
2019-03-15T03:34:35.054Z,0
2019-03-15T03:35:19.818Z,0
2019-03-15T03:36:19.253Z,0
2019-03-15T03:37:19.351Z,0
2019-03-15T03:38:19.807Z,0
2019-03-15T03:39:34.605Z,0
2019-03-15T03:40:22.871Z,0
2019-03-15T03:41:19.343Z,0
2019-03-15T03:42:19.356Z,0
2019-03-15T03:43:34.022Z,0
2019-03-15T03:44:19.366Z,0
2019-03-15T03:45:19.402Z,0
2019-03-15T03:46:34.058Z,0
2019-03-15T03:47:19.199Z,0
2019-03-15T03:48:22.846Z,0
2019-03-15T03:49:19.458Z,0
2019-03-15T03:50:19.465Z,0
2019-03-15T03:51:19.478Z,0
2019-03-15T03:52:19.490Z,0
2019-03-15T03:53:19.508Z,0
2019-03-15T03:54:19.518Z,0
2019-03-15T03:55:34.221Z,0
2019-03-15T03:56:20.009Z,0
2019-03-15T03:57:19.568Z,0
2019-03-15T03:58:19.579Z,0
2019-03-15T03:59:19.602Z,0
2019-03-15T04:00:19.641Z,0
2019-03-15T04:01:19.633Z,0
2019-03-15T04:02:53.349Z,0
2019-03-15T04:03:19.661Z,0
2019-03-15T04:04:19.730Z,0
2019-03-15T04:05:34.360Z,0
2019-03-15T04:06:19.709Z,0
2019-03-15T04:07:19.725Z,0
2019-03-15T04:08:19.736Z,0
2019-03-15T04:09:19.900Z,0
2019-03-15T04:11:19.788Z,0
2019-03-15T04:12:19.804Z,0
2019-03-15T04:13:19.825Z,0
2019-03-15T04:14:19.835Z,0
2019-03-15T04:15:19.850Z,0
2019-03-15T04:16:19.861Z,0
2019-03-15T04:17:19.971Z,0
2019-03-15T04:18:34.559Z,0
2019-03-15T04:19:34.586Z,0
2019-03-15T04:20:20.033Z,0
2019-03-15T04:21:19.945Z,0
2019-03-15T04:22:19.956Z,0
2019-03-15T04:23:20.218Z,0
2019-03-15T04:25:20.007Z,0
2019-03-15T04:26:20.019Z,0
2019-03-15T04:27:20.042Z,0
2019-03-15T04:28:20.048Z,0
2019-03-15T04:29:20.067Z,0
2019-03-15T04:30:20.079Z,0
2019-03-15T04:31:20.112Z,0
2019-03-15T04:32:20.112Z,0
2019-03-15T04:33:20.135Z,0
2019-03-15T04:34:34.807Z,0
2019-03-15T04:35:20.202Z,0
2019-03-15T04:36:20.174Z,0
2019-03-15T04:37:22.684Z,0
2019-03-15T04:38:34.874Z,0
2019-03-15T04:39:21.298Z,0
2019-03-15T04:40:20.324Z,0
2019-03-15T04:41:20.253Z,0
2019-03-15T04:42:34.935Z,0
2019-03-15T04:43:34.947Z,0
2019-03-15T04:44:20.404Z,0
2019-03-15T04:45:20.317Z,0
2019-03-15T04:46:20.344Z,0
2019-03-15T04:47:20.351Z,0
2019-03-15T04:49:35.040Z,0
2019-03-15T04:50:20.397Z,0
2019-03-15T04:51:20.556Z,0
2019-03-15T04:52:20.427Z,0
2019-03-15T04:53:20.440Z,0
2019-03-15T04:54:20.208Z,0
2019-03-15T04:55:20.558Z,0
2019-03-15T04:56:20.687Z,4
2019-03-15T04:57:20.506Z,0
2019-03-15T04:58:20.523Z,4
2019-03-15T04:59:35.196Z,4
2019-03-15T05:00:20.552Z,4
2019-03-15T05:01:20.575Z,8
2019-03-15T05:02:35.244Z,4
2019-03-15T05:03:20.364Z,4
2019-03-15T05:04:20.613Z,8
2019-03-15T05:05:20.639Z,8
2019-03-15T05:06:20.647Z,12
2019-03-15T05:07:20.661Z,16
2019-03-15T05:08:20.676Z,16
2019-03-15T05:09:35.359Z,28
2019-03-15T05:10:20.788Z,28
2019-03-15T05:11:20.726Z,32
2019-03-15T05:12:20.734Z,32
2019-03-15T05:13:20.752Z,40
2019-03-15T05:14:20.772Z,44
2019-03-15T05:16:20.799Z,60
2019-03-15T05:17:20.818Z,52
2019-03-15T05:18:35.497Z,76
2019-03-15T05:19:20.848Z,88
2019-03-15T05:20:23.616Z,92
2019-03-15T05:21:35.543Z,96
2019-03-15T05:22:20.894Z,112
2019-03-15T05:23:20.914Z,136
2019-03-15T05:24:20.926Z,152
2019-03-15T05:25:20.943Z,208
2019-03-15T05:26:20.960Z,216
2019-03-15T05:27:20.736Z,208
2019-03-15T05:28:35.761Z,208
2019-03-15T05:29:21.004Z,184
2019-03-15T05:30:21.023Z,176
2019-03-15T05:31:21.034Z,156
2019-03-15T05:32:21.056Z,188
2019-03-15T05:33:35.728Z,300
2019-03-15T05:34:20.858Z,284
2019-03-15T05:35:21.103Z,340
2019-03-15T05:36:21.124Z,336
2019-03-15T05:37:35.792Z,252
2019-03-15T05:38:21.145Z,228
2019-03-15T05:39:21.259Z,236
2019-03-15T05:40:21.178Z,268
2019-03-15T05:41:21.193Z,316
2019-03-15T05:42:21.222Z,308
2019-03-15T05:43:21.227Z,356
2019-03-15T05:44:21.242Z,344
2019-03-15T05:45:21.257Z,336
2019-03-15T05:46:21.267Z,336
2019-03-15T05:47:21.308Z,380
2019-03-15T05:48:21.307Z,432
2019-03-15T05:49:35.986Z,544
2019-03-15T05:50:21.331Z,700
2019-03-15T05:51:21.352Z,536
2019-03-15T05:52:21.365Z,424
2019-03-15T05:53:36.042Z,428
2019-03-15T05:54:21.400Z,444
2019-03-15T05:55:36.081Z,364
2019-03-15T05:56:36.098Z,396
2019-03-15T05:57:21.560Z,404
2019-03-15T05:58:24.467Z,440
2019-03-15T06:00:21.494Z,328
2019-03-15T06:01:21.542Z,332
2019-03-15T06:02:21.546Z,432
2019-03-15T06:03:21.554Z,352
2019-03-15T06:04:36.212Z,284
2019-03-15T06:05:21.572Z,320
2019-03-15T06:06:21.729Z,408
2019-03-15T06:07:21.606Z,568
2019-03-15T06:08:21.617Z,676
2019-03-15T06:09:36.292Z,856
2019-03-15T06:10:21.656Z,968
2019-03-15T06:11:21.674Z,1188
2019-03-15T06:12:21.678Z,1296
2019-03-15T06:13:21.703Z,1160
2019-03-15T06:14:21.769Z,1352
2019-03-15T06:15:21.727Z,1416
2019-03-15T06:16:21.780Z,1300
2019-03-15T06:17:36.420Z,1100
2019-03-15T06:18:36.434Z,1004
2019-03-15T06:19:21.540Z,952
2019-03-15T06:20:36.463Z,1044
2019-03-15T06:21:36.484Z,1228
2019-03-15T06:22:21.856Z,1452
2019-03-15T06:23:24.214Z,1364
2019-03-15T06:24:36.529Z,1908
2019-03-15T06:25:21.920Z,2412
2019-03-15T06:26:36.567Z,1992
2019-03-15T06:27:21.923Z,1572
2019-03-15T06:28:36.710Z,1344
2019-03-15T06:29:21.944Z,1328
2019-03-15T06:30:21.960Z,1408
2019-03-15T06:31:21.980Z,1584
2019-03-15T06:32:22.046Z,1772
2019-03-15T06:33:22.124Z,1356
2019-03-15T06:34:39.266Z,1044
2019-03-15T06:35:22.044Z,1396
2019-03-15T06:36:22.066Z,1412
2019-03-15T06:37:22.084Z,1476
2019-03-15T06:38:22.097Z,1796
2019-03-15T06:42:22.160Z,4336
2019-03-15T06:43:36.844Z,5928
2019-03-15T06:44:22.182Z,5664
2019-03-15T06:45:36.963Z,5176
2019-03-15T06:46:22.225Z,4316
2019-03-15T06:47:22.231Z,4076
2019-03-15T06:48:22.250Z,3420
2019-03-15T06:49:23.670Z,3956
2019-03-15T06:50:22.283Z,3872
2019-03-15T06:51:22.299Z,5324
2019-03-15T06:52:36.978Z,2668
2019-03-15T06:54:22.342Z,4348
2019-03-15T06:55:22.368Z,4736
2019-03-15T06:56:37.041Z,4168
2019-03-15T06:57:22.421Z,12608
2019-03-15T06:58:22.414Z,2016
2019-03-15T06:59:22.428Z,1380
2019-03-15T07:00:22.458Z,1196
2019-03-15T07:01:22.468Z,1288
2019-03-15T07:02:22.480Z,1268
2019-03-15T07:03:22.496Z,1592
2019-03-15T07:04:22.522Z,1344
2019-03-15T07:06:37.201Z,1176
2019-03-15T07:08:37.234Z,972
2019-03-15T07:09:22.598Z,968
2019-03-15T07:10:22.631Z,960
2019-03-15T07:11:22.619Z,960
2019-03-15T07:12:39.938Z,1040
2019-03-15T07:13:22.675Z,988
2019-03-15T07:14:23.160Z,1096
2019-03-15T07:15:22.686Z,1288
2019-03-15T07:16:22.716Z,1352
2019-03-15T07:17:22.720Z,1528
2019-03-15T07:18:25.748Z,1524
2019-03-15T07:19:35.436Z,1772
2019-03-15T07:20:23.219Z,1876
2019-03-15T07:21:22.787Z,1640
2019-03-15T07:23:22.854Z,1608
2019-03-15T07:24:32.634Z,1872
2019-03-15T07:25:22.862Z,3392
2019-03-15T07:26:22.874Z,4080
2019-03-15T07:27:22.898Z,4268
2019-03-15T07:28:37.569Z,3680
2019-03-15T07:29:26.050Z,3936
2019-03-15T07:30:23.055Z,3620
2019-03-15T07:31:22.965Z,3480
2019-03-15T07:32:22.971Z,3192
2019-03-15T07:33:23.275Z,3444
2019-03-15T07:34:23.214Z,4824
2019-03-15T07:35:37.674Z,6308
2019-03-15T07:36:23.036Z,7976
2019-03-15T07:37:37.722Z,8344
2019-03-15T07:38:23.067Z,7792
2019-03-15T07:39:22.839Z,7396
2019-03-15T07:40:37.753Z,5748
2019-03-15T07:41:25.382Z,5320
2019-03-15T07:42:23.127Z,5064
2019-03-15T07:43:24.959Z,5292
2019-03-15T07:44:37.826Z,6376
2019-03-15T07:45:23.179Z,6356
2019-03-15T07:46:23.206Z,5640
2019-03-15T07:47:37.877Z,4856
2019-03-15T07:48:31.779Z,4824
2019-03-15T07:49:23.248Z,4180
2019-03-15T07:50:23.262Z,4184
2019-03-15T07:51:23.280Z,4268
2019-03-15T07:52:23.298Z,4760
2019-03-15T07:53:37.974Z,5632
2019-03-15T07:54:38.560Z,5668
2019-03-15T07:55:23.344Z,5120
2019-03-15T07:56:38.029Z,4656
2019-03-15T07:57:23.387Z,4948
2019-03-15T07:59:38.077Z,6576
2019-03-15T08:00:23.445Z,6364
2019-03-15T08:01:23.486Z,5020
2019-03-15T08:02:23.216Z,4528
2019-03-15T08:03:23.482Z,4532
2019-03-15T08:04:24.739Z,5104
2019-03-15T08:05:23.580Z,7532
2019-03-15T08:06:39.159Z,6900
2019-03-15T08:07:47.783Z,7332
2019-03-15T08:08:23.671Z,7372
2019-03-15T08:09:23.596Z,6848
2019-03-15T08:10:23.659Z,6900
2019-03-15T08:11:23.401Z,5680
2019-03-15T08:12:41.231Z,6688
2019-03-15T08:13:23.759Z,6712
2019-03-15T08:14:23.696Z,4860
2019-03-15T08:15:23.704Z,4704
2019-03-15T08:16:23.706Z,5204
2019-03-15T08:17:23.735Z,5564
2019-03-15T08:18:23.740Z,8056
2019-03-15T08:19:38.427Z,5852
2019-03-15T08:20:38.443Z,7144
2019-03-15T08:21:25.300Z,9360
2019-03-15T08:22:23.920Z,8812
2019-03-15T08:24:23.625Z,6940
2019-03-15T08:25:23.865Z,6960
2019-03-15T08:26:38.545Z,6412
2019-03-15T08:27:23.937Z,8588
2019-03-15T08:28:23.941Z,15700
2019-03-15T08:29:23.950Z,14280
2019-03-15T08:30:23.963Z,12456
2019-03-15T08:31:38.395Z,13092
2019-03-15T08:32:23.999Z,13568
2019-03-15T08:33:24.014Z,16640
2019-03-15T08:34:24.045Z,39008
2019-03-15T08:35:38.709Z,13104
2019-03-15T08:36:27.559Z,14080
2019-03-15T08:37:24.118Z,39296
2019-03-15T08:38:24.203Z,43712
2019-03-15T08:39:24.118Z,15168
2019-03-15T08:40:25.754Z,12072
2019-03-15T08:41:38.908Z,9560
2019-03-15T08:42:38.835Z,9576
2019-03-15T08:43:24.217Z,9468
2019-03-15T08:44:24.207Z,8588
2019-03-15T08:45:24.267Z,8580
2019-03-15T08:46:24.266Z,8324
2019-03-15T08:47:38.931Z,11784
2019-03-15T08:48:24.302Z,5984
2019-03-15T08:49:24.303Z,5992
2019-03-15T08:50:26.790Z,6252
2019-03-15T08:51:24.344Z,5012
2019-03-15T08:52:24.358Z,3908
2019-03-15T08:53:39.041Z,3736
2019-03-15T08:54:24.396Z,3456
2019-03-15T08:55:24.424Z,3612
2019-03-15T08:56:39.094Z,3988
2019-03-15T08:57:24.468Z,3556
2019-03-15T08:58:29.075Z,3252
2019-03-15T08:59:24.486Z,3636
2019-03-15T09:00:24.722Z,3796
2019-03-15T09:01:26.361Z,3844
2019-03-15T09:02:24.558Z,4048
2019-03-15T09:03:39.537Z,5012
2019-03-15T09:04:26.504Z,4700
2019-03-15T09:06:24.645Z,5680
2019-03-15T09:07:24.635Z,5844
2019-03-15T09:08:24.648Z,5372
2019-03-15T09:09:24.679Z,5364
2019-03-15T09:10:30.642Z,4164
2019-03-15T09:11:39.371Z,4456
2019-03-15T09:12:24.733Z,4764
2019-03-15T09:13:24.750Z,4996
2019-03-15T09:14:24.759Z,6216
2019-03-15T09:15:24.782Z,7136
2019-03-15T09:16:39.453Z,8628
2019-03-15T09:17:27.286Z,9348
2019-03-15T09:18:24.835Z,8956
2019-03-15T09:19:39.515Z,7900
2019-03-15T09:20:29.585Z,7492
2019-03-15T09:21:24.884Z,7264
2019-03-15T09:22:24.919Z,6804
2019-03-15T09:23:24.947Z,6824
2019-03-15T09:24:24.938Z,8128
2019-03-15T09:25:27.786Z,9448
2019-03-15T09:26:24.971Z,9380
2019-03-15T09:27:25.018Z,7620
2019-03-15T09:28:39.673Z,6480
2019-03-15T09:29:25.118Z,7408
2019-03-15T09:31:25.072Z,7672
2019-03-15T09:32:24.856Z,8476
2019-03-15T09:34:39.786Z,7920
2019-03-15T09:35:25.194Z,7700
2019-03-15T09:36:25.163Z,7876
2019-03-15T09:37:25.176Z,7500
2019-03-15T09:38:25.196Z,6920
2019-03-15T09:39:25.229Z,6820
2019-03-15T09:40:28.368Z,6860
2019-03-15T09:41:44.677Z,7132
2019-03-15T09:42:39.984Z,7788
2019-03-15T09:43:39.951Z,6712
2019-03-15T09:44:25.315Z,6804
2019-03-15T09:45:25.088Z,7256
2019-03-15T09:46:25.349Z,7116
2019-03-15T09:47:25.368Z,5840
2019-03-15T09:48:25.399Z,4964
2019-03-15T09:49:25.416Z,4316
2019-03-15T09:50:55.206Z,4844
2019-03-15T09:52:25.454Z,5220
2019-03-15T09:53:25.473Z,5916
2019-03-15T09:54:28.687Z,6692
2019-03-15T09:55:39.406Z,4992
2019-03-15T09:56:27.805Z,4488
2019-03-15T09:57:25.547Z,3584
2019-03-15T09:58:25.569Z,3992
2019-03-15T09:59:26.727Z,4528
2019-03-15T10:00:25.617Z,4148
2019-03-15T10:01:41.799Z,4160
2019-03-15T10:02:37.555Z,4184
2019-03-15T10:03:29.728Z,4636
2019-03-15T10:04:25.746Z,4672
2019-03-15T10:05:25.461Z,5908
2019-03-15T10:06:40.380Z,4988
2019-03-15T10:07:43.048Z,4740
2019-03-15T10:08:28.422Z,4636
2019-03-15T10:09:25.792Z,4472
2019-03-15T10:11:25.810Z,6812
2019-03-15T10:12:25.857Z,8300
2019-03-15T10:13:25.840Z,8564
2019-03-15T10:14:26.047Z,8484
2019-03-15T10:15:28.722Z,8540
2019-03-15T10:16:25.921Z,8776
2019-03-15T10:17:28.395Z,9136
2019-03-15T10:18:25.939Z,9476
2019-03-15T10:19:25.953Z,8844
2019-03-15T10:20:25.728Z,9724
2019-03-15T10:21:26.001Z,10136
2019-03-15T10:22:40.670Z,11764
2019-03-15T10:23:26.031Z,10068
2019-03-15T10:24:26.045Z,9576
2019-03-15T10:25:26.064Z,9420
2019-03-15T10:26:26.086Z,9048
2019-03-15T10:27:26.107Z,9996
2019-03-15T10:28:26.121Z,12388
2019-03-15T10:29:26.973Z,11084
2019-03-15T10:30:26.267Z,10384
2019-03-15T10:31:29.106Z,8644
2019-03-15T10:33:52.671Z,8528
2019-03-15T10:34:26.239Z,8844
2019-03-15T10:35:26.253Z,8792
2019-03-15T10:36:26.276Z,9132
2019-03-15T10:37:26.347Z,8212
2019-03-15T10:38:40.974Z,6464
2019-03-15T10:39:26.339Z,6408
2019-03-15T10:40:41.019Z,6808
2019-03-15T10:41:26.377Z,6940
2019-03-15T10:42:26.387Z,6528
2019-03-15T10:43:26.417Z,5344
2019-03-15T10:44:26.432Z,5444
2019-03-15T10:45:26.200Z,7124
2019-03-15T10:46:26.467Z,8556
2019-03-15T10:47:42.479Z,9424
2019-03-15T10:48:32.483Z,9860
2019-03-15T10:49:26.658Z,9644
2019-03-15T10:50:26.538Z,8908
2019-03-15T10:51:41.227Z,7564
2019-03-15T10:52:41.241Z,7464
2019-03-15T10:53:26.598Z,7368
2019-03-15T10:54:55.948Z,7276
2019-03-15T10:56:26.704Z,7116
2019-03-15T10:57:26.678Z,6744
2019-03-15T10:58:26.691Z,6612
2019-03-15T10:59:26.732Z,6152
2019-03-15T11:00:26.731Z,5212
2019-03-15T11:01:26.751Z,4672
2019-03-15T11:02:26.771Z,4868
2019-03-15T11:03:26.788Z,4704
2019-03-15T11:04:26.811Z,4148
2019-03-15T11:06:26.842Z,5120
2019-03-15T11:08:29.116Z,5944
2019-03-15T11:09:41.578Z,6588
2019-03-15T11:10:26.925Z,7068
2019-03-15T11:11:26.942Z,6988
2019-03-15T11:12:26.974Z,7068
2019-03-15T11:13:27.001Z,6536
2019-03-15T11:14:27.104Z,6952
2019-03-15T11:15:41.685Z,6388
2019-03-15T11:16:27.042Z,5816
2019-03-15T11:17:41.722Z,6048
2019-03-15T11:18:41.743Z,6952
2019-03-15T11:19:41.758Z,8232
2019-03-15T11:20:27.214Z,8940
2019-03-15T11:21:41.898Z,9808
2019-03-15T11:22:41.813Z,9992
2019-03-15T11:23:27.175Z,10036
2019-03-15T11:25:27.206Z,9832
2019-03-15T11:26:27.238Z,9160
2019-03-15T11:27:27.247Z,8336
2019-03-15T11:28:27.366Z,7812
2019-03-15T11:29:27.283Z,8464
2019-03-15T11:30:27.441Z,10308
2019-03-15T11:31:41.988Z,11964
2019-03-15T11:32:27.344Z,12468
2019-03-15T11:33:27.370Z,12844
2019-03-15T11:34:27.418Z,12984
2019-03-15T11:35:28.812Z,12008
2019-03-15T11:36:27.429Z,12372
2019-03-15T11:37:27.434Z,12636
2019-03-15T11:38:42.119Z,12528
2019-03-15T11:39:27.475Z,12860
2019-03-15T11:40:27.498Z,13112
2019-03-15T11:41:42.181Z,12832
2019-03-15T11:42:27.535Z,13276
2019-03-15T11:43:42.224Z,13292
2019-03-15T11:44:27.640Z,13452
2019-03-15T11:46:27.612Z,12252
2019-03-15T11:47:27.446Z,11352
2019-03-15T11:48:27.674Z,10744
2019-03-15T11:49:30.749Z,10372
2019-03-15T11:50:27.741Z,10312
2019-03-15T11:51:27.717Z,10084
2019-03-15T11:52:27.738Z,9624
2019-03-15T11:53:27.504Z,9272
2019-03-15T11:54:27.779Z,8944
2019-03-15T11:56:34.339Z,9176
2019-03-15T11:57:42.495Z,8100
2019-03-15T11:58:27.856Z,8392
2019-03-15T11:59:27.874Z,8292
2019-03-15T12:00:27.898Z,7256
2019-03-15T12:01:42.590Z,7476
2019-03-15T12:03:27.961Z,7856
2019-03-15T12:04:27.975Z,7800
2019-03-15T12:05:28.104Z,8376
2019-03-15T12:06:28.010Z,9280
2019-03-15T12:07:28.042Z,10332
2019-03-15T12:08:28.057Z,10848
2019-03-15T12:09:43.573Z,11116
2019-03-15T12:10:28.118Z,10528
2019-03-15T12:11:28.112Z,9612
2019-03-15T12:12:28.736Z,8732
2019-03-15T12:13:57.500Z,8216
2019-03-15T12:14:40.351Z,8532
2019-03-15T12:15:28.206Z,8180
2019-03-15T12:16:28.310Z,8376
2019-03-15T12:17:28.230Z,9096
2019-03-15T12:18:28.252Z,9148
2019-03-15T12:19:28.273Z,9476
2019-03-15T12:20:28.299Z,10144
2019-03-15T12:21:42.985Z,9244
2019-03-15T12:22:28.337Z,7872
2019-03-15T12:23:28.355Z,6892
2019-03-15T12:24:28.462Z,5540
2019-03-15T12:25:43.058Z,5068
2019-03-15T12:27:28.438Z,5160
2019-03-15T12:28:43.112Z,4516
2019-03-15T12:29:43.134Z,5032
2019-03-15T12:30:28.495Z,5204
2019-03-15T12:31:28.508Z,4376
2019-03-15T12:32:31.025Z,4308
2019-03-15T12:33:28.554Z,4300
2019-03-15T12:34:28.571Z,4184
2019-03-15T12:35:28.597Z,3692
2019-03-15T12:36:28.611Z,2860
2019-03-15T12:37:28.638Z,2592
2019-03-15T12:38:43.314Z,2504
2019-03-15T12:39:43.337Z,3120
2019-03-15T12:40:43.354Z,3920
2019-03-15T12:41:32.003Z,4412
2019-03-15T12:42:28.725Z,4876
2019-03-15T12:43:28.496Z,4996
2019-03-15T12:44:43.436Z,4564
2019-03-15T12:45:28.790Z,4220
2019-03-15T12:46:28.807Z,3668
2019-03-15T12:47:28.826Z,3432
2019-03-15T12:48:28.856Z,3712
2019-03-15T12:49:30.305Z,4184
2019-03-15T12:50:28.884Z,4040
2019-03-15T12:51:39.195Z,3752
2019-03-15T12:52:50.366Z,3320
2019-03-15T12:53:28.703Z,3260
2019-03-15T12:54:28.966Z,3120
2019-03-15T12:55:43.743Z,2928
2019-03-15T12:56:29.011Z,3020
2019-03-15T12:57:29.028Z,3072
2019-03-15T12:58:29.082Z,3236
2019-03-15T12:59:29.059Z,3388
2019-03-15T13:00:29.080Z,3668
2019-03-15T13:01:29.117Z,3980
2019-03-15T13:02:43.784Z,4000
2019-03-15T13:03:29.133Z,3912
2019-03-15T13:04:29.156Z,3976
2019-03-15T13:05:29.248Z,3532
2019-03-15T13:06:29.191Z,3884
2019-03-15T13:07:29.215Z,4268
2019-03-15T13:08:29.224Z,4704
2019-03-15T13:09:43.925Z,5716
2019-03-15T13:10:29.281Z,6476
2019-03-15T13:11:29.286Z,6908
2019-03-15T13:12:29.344Z,6948
2019-03-15T13:13:29.320Z,5924
2019-03-15T13:14:29.348Z,5104
2019-03-15T13:15:31.865Z,5156
2019-03-15T13:16:44.063Z,4804
2019-03-15T13:17:29.407Z,4616
2019-03-15T13:18:29.418Z,4844
2019-03-15T13:19:29.435Z,5336
2019-03-15T13:20:29.454Z,4804
2019-03-15T13:21:29.233Z,4436
2019-03-15T13:22:29.501Z,4748
2019-03-15T13:23:29.516Z,5824
2019-03-15T13:24:44.197Z,7072
2019-03-15T13:25:29.553Z,7472
2019-03-15T13:26:31.414Z,7880
2019-03-15T13:27:29.344Z,7936
2019-03-15T13:28:29.614Z,7616
2019-03-15T13:29:29.637Z,6688
2019-03-15T13:30:29.645Z,6240
2019-03-15T13:31:29.666Z,5880
2019-03-15T13:32:44.348Z,4952
2019-03-15T13:33:29.795Z,4080
2019-03-15T13:34:29.728Z,3180
2019-03-15T13:36:29.762Z,2692
2019-03-15T13:37:29.539Z,2496
2019-03-15T13:38:29.799Z,2628
2019-03-15T13:39:29.859Z,2648
2019-03-15T13:40:29.842Z,2432
2019-03-15T13:41:29.920Z,2380
2019-03-15T13:42:44.538Z,2248
2019-03-15T13:43:29.893Z,2200
2019-03-15T13:44:33.255Z,2100
2019-03-15T13:45:29.950Z,2032
2019-03-15T13:46:29.953Z,2572
2019-03-15T13:47:29.970Z,2488
2019-03-15T13:48:44.649Z,2980
2019-03-15T13:49:30.011Z,3496
2019-03-15T13:50:30.025Z,3552
2019-03-15T13:51:30.076Z,3296
2019-03-15T13:52:30.074Z,3528
2019-03-15T13:53:30.080Z,3504
2019-03-15T13:54:30.098Z,3980
2019-03-15T13:55:30.129Z,4368
2019-03-15T13:56:30.161Z,4576
2019-03-15T13:57:30.165Z,4320
2019-03-15T13:58:30.175Z,3864
2019-03-15T13:59:30.193Z,3568
2019-03-15T14:00:30.224Z,3396
2019-03-15T14:01:30.238Z,3232
2019-03-15T14:02:30.253Z,3128
2019-03-15T14:03:30.270Z,3128
2019-03-15T14:04:44.947Z,2632
2019-03-15T14:05:30.385Z,2476
2019-03-15T14:06:30.326Z,2364
2019-03-15T14:07:30.338Z,2048
2019-03-15T14:08:30.458Z,1900
2019-03-15T14:10:30.394Z,1848
2019-03-15T14:11:45.081Z,1708
2019-03-15T14:12:30.430Z,1636
2019-03-15T14:13:30.457Z,1396
2019-03-15T14:14:30.469Z,1540
2019-03-15T14:15:45.152Z,1592
2019-03-15T14:16:30.512Z,1520
2019-03-15T14:17:45.196Z,1452
2019-03-15T14:18:30.557Z,1648
2019-03-15T14:19:45.230Z,1672
2019-03-15T14:20:30.592Z,1452
2019-03-15T14:21:30.607Z,1512
2019-03-15T14:22:30.621Z,1424
2019-03-15T14:23:30.636Z,1328
2019-03-15T14:24:30.737Z,1240
2019-03-15T14:25:30.726Z,1096
2019-03-15T14:26:30.690Z,1292
2019-03-15T14:28:30.728Z,1276
2019-03-15T14:29:30.785Z,1112
2019-03-15T14:30:30.773Z,1120
2019-03-15T14:31:30.786Z,1096
2019-03-15T14:32:30.799Z,1160
2019-03-15T14:33:30.821Z,1404
2019-03-15T14:35:30.936Z,1188
2019-03-15T14:36:30.880Z,1104
2019-03-15T14:37:31.465Z,1040
2019-03-15T14:38:31.402Z,876
2019-03-15T14:39:31.165Z,996